sensor_id;sensor_type;location;lat;lon;timestamp;P1;durP1;ratioP1;P2;durP2;ratioP2
50757;SDS011;36732;47.980;11.652;2023-02-28T00:00:47;3.25;;;1.83;;
50757;SDS011;36732;47.980;11.652;2023-02-28T00:03:13;2.03;;;1.75;;
50757;SDS011;36732;47.980;11.652;2023-02-28T00:05:39;2.15;;;1.85;;
50757;SDS011;36732;47.980;11.652;2023-02-28T00:08:06;1.95;;;1.65;;
50757;SDS011;36732;47.980;11.652;2023-02-28T00:10:32;1.60;;;1.50;;
50757;SDS011;36732;47.980;11.652;2023-02-28T00:12:59;1.50;;;1.40;;
50757;SDS011;36732;47.980;11.652;2023-02-28T00:15:28;3.85;;;2.85;;
50757;SDS011;36732;47.980;11.652;2023-02-28T00:17:54;2.30;;;2.10;;
50757;SDS011;36732;47.980;11.652;2023-02-28T00:20:20;2.38;;;1.90;;
50757;SDS011;36732;47.980;11.652;2023-02-28T00:22:47;2.25;;;1.63;;
50757;SDS011;36732;47.980;11.652;2023-02-28T00:25:17;3.50;;;1.60;;
50757;SDS011;36732;47.980;11.652;2023-02-28T00:27:47;2.47;;;1.60;;
50757;SDS011;36732;47.980;11.652;2023-02-28T00:30:20;2.38;;;1.83;;
50757;SDS011;36732;47.980;11.652;2023-02-28T00:32:47;4.40;;;1.80;;
50757;SDS011;36732;47.980;11.652;2023-02-28T00:35:14;4.03;;;1.80;;
50757;SDS011;36732;47.980;11.652;2023-02-28T00:37:40;3.75;;;1.90;;
50757;SDS011;36732;47.980;11.652;2023-02-28T00:40:07;2.15;;;1.50;;
50757;SDS011;36732;47.980;11.652;2023-02-28T00:42:34;2.00;;;1.80;;
50757;SDS011;36732;47.980;11.652;2023-02-28T00:45:00;2.10;;;1.80;;
50757;SDS011;36732;47.980;11.652;2023-02-28T00:47:28;2.78;;;1.88;;
50757;SDS011;36732;47.980;11.652;2023-02-28T00:49:54;2.55;;;1.73;;
50757;SDS011;36732;47.980;11.652;2023-02-28T00:52:20;2.30;;;1.90;;
50757;SDS011;36732;47.980;11.652;2023-02-28T00:54:46;3.78;;;2.05;;
50757;SDS011;36732;47.980;11.652;2023-02-28T00:57:12;2.78;;;1.98;;
50757;SDS011;36732;47.980;11.652;2023-02-28T00:59:37;1.98;;;1.60;;
50757;SDS011;36732;47.980;11.652;2023-02-28T01:02:03;3.63;;;1.98;;
50757;SDS011;36732;47.980;11.652;2023-02-28T01:04:29;2.53;;;1.90;;
50757;SDS011;36732;47.980;11.652;2023-02-28T01:06:55;2.30;;;1.55;;
50757;SDS011;36732;47.980;11.652;2023-02-28T01:09:21;2.30;;;1.98;;
50757;SDS011;36732;47.980;11.652;2023-02-28T01:11:47;2.28;;;1.88;;
50757;SDS011;36732;47.980;11.652;2023-02-28T01:14:13;1.92;;;1.73;;
50757;SDS011;36732;47.980;11.652;2023-02-28T01:16:41;2.58;;;1.88;;
50757;SDS011;36732;47.980;11.652;2023-02-28T01:19:08;2.55;;;1.70;;
50757;SDS011;36732;47.980;11.652;2023-02-28T01:21:34;3.92;;;1.75;;
50757;SDS011;36732;47.980;11.652;2023-02-28T01:24:00;2.65;;;1.88;;
50757;SDS011;36732;47.980;11.652;2023-02-28T01:26:27;2.50;;;1.80;;
50757;SDS011;36732;47.980;11.652;2023-02-28T01:28:53;1.52;;;1.40;;
50757;SDS011;36732;47.980;11.652;2023-02-28T01:31:19;1.92;;;1.65;;
50757;SDS011;36732;47.980;11.652;2023-02-28T01:33:46;2.30;;;1.75;;
50757;SDS011;36732;47.980;11.652;2023-02-28T01:36:13;2.75;;;1.88;;
50757;SDS011;36732;47.980;11.652;2023-02-28T01:38:42;2.45;;;1.58;;
50757;SDS011;36732;47.980;11.652;2023-02-28T01:41:09;1.88;;;1.60;;
50757;SDS011;36732;47.980;11.652;2023-02-28T01:43:53;2.28;;;1.50;;
50757;SDS011;36732;47.980;11.652;2023-02-28T01:46:23;1.67;;;1.50;;
50757;SDS011;36732;47.980;11.652;2023-02-28T01:51:48;2.60;;;1.80;;
50757;SDS011;36732;47.980;11.652;2023-02-28T01:54:16;2.78;;;2.00;;
50757;SDS011;36732;47.980;11.652;2023-02-28T01:56:59;2.95;;;1.77;;
50757;SDS011;36732;47.980;11.652;2023-02-28T02:02:01;2.15;;;1.50;;
50757;SDS011;36732;47.980;11.652;2023-02-28T02:04:30;2.63;;;1.60;;
50757;SDS011;36732;47.980;11.652;2023-02-28T02:07:02;2.15;;;1.42;;
50757;SDS011;36732;47.980;11.652;2023-02-28T02:09:29;2.58;;;2.05;;
50757;SDS011;36732;47.980;11.652;2023-02-28T02:11:55;2.13;;;1.40;;
50757;SDS011;36732;47.980;11.652;2023-02-28T02:25:40;1.88;;;1.58;;
50757;SDS011;36732;47.980;11.652;2023-02-28T02:31:28;1.83;;;1.55;;
50757;SDS011;36732;47.980;11.652;2023-02-28T02:36:45;3.65;;;1.80;;
50757;SDS011;36732;47.980;11.652;2023-02-28T02:42:16;2.15;;;1.60;;
50757;SDS011;36732;47.980;11.652;2023-02-28T02:45:21;2.25;;;2.03;;
50757;SDS011;36732;47.980;11.652;2023-02-28T02:48:01;3.08;;;1.98;;
50757;SDS011;36732;47.980;11.652;2023-02-28T02:50:33;2.80;;;1.50;;
50757;SDS011;36732;47.980;11.652;2023-02-28T02:53:04;1.80;;;1.70;;
50757;SDS011;36732;47.980;11.652;2023-02-28T02:55:33;3.13;;;2.08;;
50757;SDS011;36732;47.980;11.652;2023-02-28T02:58:07;2.78;;;1.45;;
50757;SDS011;36732;47.980;11.652;2023-02-28T03:00:41;2.90;;;1.92;;
50757;SDS011;36732;47.980;11.652;2023-02-28T03:03:12;1.60;;;1.50;;
50757;SDS011;36732;47.980;11.652;2023-02-28T03:05:44;1.65;;;1.55;;
50757;SDS011;36732;47.980;11.652;2023-02-28T03:08:13;1.60;;;1.50;;
50757;SDS011;36732;47.980;11.652;2023-02-28T03:10:43;2.65;;;1.83;;
50757;SDS011;36732;47.980;11.652;2023-02-28T03:24:48;2.00;;;1.80;;
50757;SDS011;36732;47.980;11.652;2023-02-28T03:29:50;3.05;;;2.03;;
50757;SDS011;36732;47.980;11.652;2023-02-28T03:32:35;2.42;;;1.95;;
50757;SDS011;36732;47.980;11.652;2023-02-28T03:35:11;2.35;;;1.67;;
50757;SDS011;36732;47.980;11.652;2023-02-28T03:37:47;2.08;;;1.85;;
50757;SDS011;36732;47.980;11.652;2023-02-28T03:40:33;3.60;;;1.90;;
50757;SDS011;36732;47.980;11.652;2023-02-28T03:43:03;2.38;;;1.90;;
50757;SDS011;36732;47.980;11.652;2023-02-28T03:45:36;3.03;;;1.83;;
50757;SDS011;36732;47.980;11.652;2023-02-28T03:50:55;1.92;;;1.55;;
50757;SDS011;36732;47.980;11.652;2023-02-28T03:53:25;2.22;;;1.63;;
50757;SDS011;36732;47.980;11.652;2023-02-28T03:56:05;3.38;;;2.40;;
50757;SDS011;36732;47.980;11.652;2023-02-28T03:58:43;2.28;;;1.92;;
50757;SDS011;36732;47.980;11.652;2023-02-28T04:01:24;2.42;;;2.20;;
50757;SDS011;36732;47.980;11.652;2023-02-28T04:04:06;2.55;;;2.13;;
50757;SDS011;36732;47.980;11.652;2023-02-28T04:06:33;2.58;;;2.15;;
50757;SDS011;36732;47.980;11.652;2023-02-28T04:09:00;2.10;;;1.70;;
50757;SDS011;36732;47.980;11.652;2023-02-28T04:11:32;2.95;;;2.05;;
50757;SDS011;36732;47.980;11.652;2023-02-28T04:14:14;2.80;;;1.77;;
50757;SDS011;36732;47.980;11.652;2023-02-28T04:16:40;2.50;;;2.08;;
50757;SDS011;36732;47.980;11.652;2023-02-28T04:19:07;2.45;;;1.75;;
50757;SDS011;36732;47.980;11.652;2023-02-28T04:21:37;3.17;;;2.17;;
50757;SDS011;36732;47.980;11.652;2023-02-28T04:24:13;2.60;;;2.03;;
50757;SDS011;36732;47.980;11.652;2023-02-28T04:26:43;2.88;;;2.08;;
50757;SDS011;36732;47.980;11.652;2023-02-28T04:29:12;2.85;;;2.20;;
50757;SDS011;36732;47.980;11.652;2023-02-28T04:31:44;2.60;;;2.15;;
50757;SDS011;36732;47.980;11.652;2023-02-28T04:34:10;2.80;;;2.10;;
50757;SDS011;36732;47.980;11.652;2023-02-28T04:36:36;2.45;;;2.20;;
50757;SDS011;36732;47.980;11.652;2023-02-28T04:39:02;2.92;;;2.15;;
50757;SDS011;36732;47.980;11.652;2023-02-28T04:41:28;3.65;;;2.35;;
50757;SDS011;36732;47.980;11.652;2023-02-28T04:43:54;2.55;;;2.10;;
50757;SDS011;36732;47.980;11.652;2023-02-28T04:46:21;3.35;;;2.15;;
50757;SDS011;36732;47.980;11.652;2023-02-28T04:48:48;2.80;;;2.20;;
50757;SDS011;36732;47.980;11.652;2023-02-28T04:51:14;3.38;;;2.70;;
50757;SDS011;36732;47.980;11.652;2023-02-28T04:53:42;3.88;;;2.55;;
50757;SDS011;36732;47.980;11.652;2023-02-28T04:56:10;2.90;;;2.10;;
50757;SDS011;36732;47.980;11.652;2023-02-28T04:58:38;2.78;;;2.40;;
50757;SDS011;36732;47.980;11.652;2023-02-28T05:01:16;3.70;;;2.47;;
50757;SDS011;36732;47.980;11.652;2023-02-28T05:03:54;3.20;;;2.60;;
50757;SDS011;36732;47.980;11.652;2023-02-28T05:06:23;4.55;;;2.22;;
50757;SDS011;36732;47.980;11.652;2023-02-28T05:08:51;3.33;;;2.60;;
50757;SDS011;36732;47.980;11.652;2023-02-28T05:11:22;3.33;;;2.83;;
50757;SDS011;36732;47.980;11.652;2023-02-28T05:13:50;5.60;;;2.58;;
50757;SDS011;36732;47.980;11.652;2023-02-28T05:16:17;4.60;;;2.83;;
50757;SDS011;36732;47.980;11.652;2023-02-28T05:18:44;4.35;;;3.40;;
50757;SDS011;36732;47.980;11.652;2023-02-28T05:23:55;3.58;;;2.47;;
50757;SDS011;36732;47.980;11.652;2023-02-28T05:26:23;4.28;;;3.25;;
50757;SDS011;36732;47.980;11.652;2023-02-28T05:28:49;3.13;;;2.83;;
50757;SDS011;36732;47.980;11.652;2023-02-28T05:31:15;7.40;;;3.97;;
50757;SDS011;36732;47.980;11.652;2023-02-28T05:33:41;5.00;;;3.75;;
50757;SDS011;36732;47.980;11.652;2023-02-28T05:36:06;4.40;;;3.72;;
50757;SDS011;36732;47.980;11.652;2023-02-28T05:38:32;3.83;;;3.05;;
50757;SDS011;36732;47.980;11.652;2023-02-28T05:40:58;4.47;;;3.47;;
50757;SDS011;36732;47.980;11.652;2023-02-28T05:43:24;4.78;;;3.63;;
50757;SDS011;36732;47.980;11.652;2023-02-28T05:45:50;5.07;;;4.15;;
50757;SDS011;36732;47.980;11.652;2023-02-28T05:48:15;5.57;;;3.95;;
50757;SDS011;36732;47.980;11.652;2023-02-28T05:50:43;5.70;;;4.20;;
50757;SDS011;36732;47.980;11.652;2023-02-28T05:53:10;30.38;;;17.42;;
50757;SDS011;36732;47.980;11.652;2023-02-28T05:55:36;11.93;;;7.95;;
50757;SDS011;36732;47.980;11.652;2023-02-28T05:58:02;7.45;;;5.57;;
50757;SDS011;36732;47.980;11.652;2023-02-28T06:00:28;8.68;;;4.22;;
50757;SDS011;36732;47.980;11.652;2023-02-28T06:02:54;7.82;;;5.13;;
50757;SDS011;36732;47.980;11.652;2023-02-28T06:05:23;6.63;;;5.30;;
50757;SDS011;36732;47.980;11.652;2023-02-28T06:07:49;7.05;;;4.65;;
50757;SDS011;36732;47.980;11.652;2023-02-28T06:10:15;8.40;;;5.20;;
50757;SDS011;36732;47.980;11.652;2023-02-28T06:12:40;5.95;;;5.15;;
50757;SDS011;36732;47.980;11.652;2023-02-28T06:15:07;6.40;;;4.68;;
50757;SDS011;36732;47.980;11.652;2023-02-28T06:17:37;6.28;;;5.10;;
50757;SDS011;36732;47.980;11.652;2023-02-28T06:20:03;7.50;;;5.18;;
50757;SDS011;36732;47.980;11.652;2023-02-28T06:22:31;7.05;;;5.28;;
50757;SDS011;36732;47.980;11.652;2023-02-28T06:24:56;7.40;;;5.50;;
50757;SDS011;36732;47.980;11.652;2023-02-28T06:27:22;6.95;;;5.75;;
50757;SDS011;36732;47.980;11.652;2023-02-28T06:29:48;7.90;;;5.68;;
50757;SDS011;36732;47.980;11.652;2023-02-28T06:32:14;8.30;;;6.05;;
50757;SDS011;36732;47.980;11.652;2023-02-28T06:34:39;8.98;;;6.30;;
50757;SDS011;36732;47.980;11.652;2023-02-28T06:37:05;9.00;;;5.43;;
50757;SDS011;36732;47.980;11.652;2023-02-28T06:39:31;7.82;;;6.00;;
50757;SDS011;36732;47.980;11.652;2023-02-28T06:41:57;6.68;;;5.13;;
50757;SDS011;36732;47.980;11.652;2023-02-28T06:44:23;9.10;;;6.85;;
50757;SDS011;36732;47.980;11.652;2023-02-28T06:46:49;9.13;;;6.88;;
50757;SDS011;36732;47.980;11.652;2023-02-28T06:49:15;10.75;;;7.57;;
50757;SDS011;36732;47.980;11.652;2023-02-28T06:51:42;8.57;;;6.95;;
50757;SDS011;36732;47.980;11.652;2023-02-28T06:54:12;11.20;;;7.93;;
50757;SDS011;36732;47.980;11.652;2023-02-28T06:56:38;10.60;;;8.15;;
50757;SDS011;36732;47.980;11.652;2023-02-28T06:59:03;9.40;;;6.47;;
50757;SDS011;36732;47.980;11.652;2023-02-28T07:01:29;10.82;;;6.40;;
50757;SDS011;36732;47.980;11.652;2023-02-28T07:03:57;11.60;;;7.82;;
50757;SDS011;36732;47.980;11.652;2023-02-28T07:06:25;10.63;;;7.72;;
50757;SDS011;36732;47.980;11.652;2023-02-28T07:08:51;10.00;;;7.80;;
50757;SDS011;36732;47.980;11.652;2023-02-28T07:11:19;9.68;;;7.45;;
50757;SDS011;36732;47.980;11.652;2023-02-28T07:13:47;9.48;;;7.78;;
50757;SDS011;36732;47.980;11.652;2023-02-28T07:16:14;9.98;;;7.45;;
50757;SDS011;36732;47.980;11.652;2023-02-28T07:18:40;9.63;;;7.15;;
50757;SDS011;36732;47.980;11.652;2023-02-28T07:21:07;8.20;;;6.30;;
50757;SDS011;36732;47.980;11.652;2023-02-28T07:23:34;11.25;;;9.20;;
50757;SDS011;36732;47.980;11.652;2023-02-28T07:26:02;9.13;;;7.82;;
50757;SDS011;36732;47.980;11.652;2023-02-28T07:28:29;9.40;;;7.60;;
50757;SDS011;36732;47.980;11.652;2023-02-28T07:30:55;11.20;;;8.73;;
50757;SDS011;36732;47.980;11.652;2023-02-28T07:33:20;13.30;;;9.05;;
50757;SDS011;36732;47.980;11.652;2023-02-28T07:35:46;10.15;;;7.60;;
50757;SDS011;36732;47.980;11.652;2023-02-28T07:38:12;9.57;;;7.88;;
50757;SDS011;36732;47.980;11.652;2023-02-28T07:40:38;8.82;;;7.32;;
50757;SDS011;36732;47.980;11.652;2023-02-28T07:43:04;11.10;;;8.85;;
50757;SDS011;36732;47.980;11.652;2023-02-28T07:45:30;10.30;;;8.68;;
50757;SDS011;36732;47.980;11.652;2023-02-28T07:47:59;9.73;;;8.10;;
50757;SDS011;36732;47.980;11.652;2023-02-28T07:50:25;11.38;;;8.52;;
50757;SDS011;36732;47.980;11.652;2023-02-28T07:52:55;9.75;;;7.57;;
50757;SDS011;36732;47.980;11.652;2023-02-28T07:55:22;10.52;;;7.85;;
50757;SDS011;36732;47.980;11.652;2023-02-28T07:57:48;11.23;;;8.57;;
50757;SDS011;36732;47.980;11.652;2023-02-28T08:00:14;10.00;;;8.02;;
50757;SDS011;36732;47.980;11.652;2023-02-28T08:02:40;10.60;;;8.35;;
50757;SDS011;36732;47.980;11.652;2023-02-28T08:05:06;9.95;;;8.18;;
50757;SDS011;36732;47.980;11.652;2023-02-28T08:07:33;11.52;;;8.43;;
50757;SDS011;36732;47.980;11.652;2023-02-28T08:09:59;10.45;;;8.15;;
50757;SDS011;36732;47.980;11.652;2023-02-28T08:12:25;12.27;;;9.45;;
50757;SDS011;36732;47.980;11.652;2023-02-28T08:14:50;10.48;;;9.10;;
50757;SDS011;36732;47.980;11.652;2023-02-28T08:17:16;11.82;;;9.27;;
50757;SDS011;36732;47.980;11.652;2023-02-28T08:19:44;10.40;;;7.47;;
50757;SDS011;36732;47.980;11.652;2023-02-28T08:22:11;9.48;;;7.50;;
50757;SDS011;36732;47.980;11.652;2023-02-28T08:24:37;9.82;;;8.27;;
50757;SDS011;36732;47.980;11.652;2023-02-28T08:27:02;10.07;;;8.23;;
50757;SDS011;36732;47.980;11.652;2023-02-28T08:29:28;9.20;;;8.15;;
50757;SDS011;36732;47.980;11.652;2023-02-28T08:31:55;9.38;;;8.38;;
50757;SDS011;36732;47.980;11.652;2023-02-28T08:34:20;9.40;;;7.72;;
50757;SDS011;36732;47.980;11.652;2023-02-28T08:36:46;10.65;;;8.50;;
50757;SDS011;36732;47.980;11.652;2023-02-28T08:39:12;11.98;;;9.15;;
50757;SDS011;36732;47.980;11.652;2023-02-28T08:41:38;11.23;;;9.57;;
50757;SDS011;36732;47.980;11.652;2023-02-28T08:44:04;11.68;;;8.32;;
50757;SDS011;36732;47.980;11.652;2023-02-28T08:46:29;11.65;;;8.60;;
50757;SDS011;36732;47.980;11.652;2023-02-28T08:48:56;11.82;;;8.75;;
50757;SDS011;36732;47.980;11.652;2023-02-28T08:51:25;10.10;;;7.88;;
50757;SDS011;36732;47.980;11.652;2023-02-28T08:53:52;11.20;;;7.97;;
50757;SDS011;36732;47.980;11.652;2023-02-28T08:56:20;11.75;;;8.30;;
50757;SDS011;36732;47.980;11.652;2023-02-28T08:58:47;10.18;;;7.80;;
50757;SDS011;36732;47.980;11.652;2023-02-28T09:03:45;11.13;;;7.65;;
50757;SDS011;36732;47.980;11.652;2023-02-28T09:06:13;11.10;;;8.15;;
50757;SDS011;36732;47.980;11.652;2023-02-28T09:08:40;9.73;;;7.78;;
50757;SDS011;36732;47.980;11.652;2023-02-28T09:11:06;12.52;;;8.93;;
50757;SDS011;36732;47.980;11.652;2023-02-28T09:13:33;8.63;;;7.22;;
50757;SDS011;36732;47.980;11.652;2023-02-28T09:15:59;11.65;;;9.52;;
50757;SDS011;36732;47.980;11.652;2023-02-28T09:18:28;11.57;;;8.80;;
50757;SDS011;36732;47.980;11.652;2023-02-28T09:20:54;9.95;;;8.57;;
50757;SDS011;36732;47.980;11.652;2023-02-28T09:23:20;9.77;;;7.82;;
50757;SDS011;36732;47.980;11.652;2023-02-28T09:25:47;10.77;;;8.88;;
50757;SDS011;36732;47.980;11.652;2023-02-28T09:28:16;9.68;;;7.95;;
50757;SDS011;36732;47.980;11.652;2023-02-28T09:30:46;9.13;;;7.65;;
50757;SDS011;36732;47.980;11.652;2023-02-28T09:33:14;11.27;;;8.80;;
50757;SDS011;36732;47.980;11.652;2023-02-28T09:35:41;11.93;;;9.48;;
50757;SDS011;36732;47.980;11.652;2023-02-28T09:38:08;10.80;;;8.45;;
50757;SDS011;36732;47.980;11.652;2023-02-28T09:40:36;10.68;;;8.45;;
50757;SDS011;36732;47.980;11.652;2023-02-28T09:43:17;11.65;;;9.15;;
50757;SDS011;36732;47.980;11.652;2023-02-28T09:45:51;12.60;;;9.48;;
50757;SDS011;36732;47.980;11.652;2023-02-28T09:48:31;11.30;;;8.77;;
50757;SDS011;36732;47.980;11.652;2023-02-28T09:51:05;10.38;;;7.82;;
50757;SDS011;36732;47.980;11.652;2023-02-28T09:53:55;11.85;;;9.25;;
50757;SDS011;36732;47.980;11.652;2023-02-28T09:56:22;11.00;;;8.70;;
50757;SDS011;36732;47.980;11.652;2023-02-28T10:04:46;10.07;;;8.68;;
50757;SDS011;36732;47.980;11.652;2023-02-28T10:07:30;11.23;;;9.38;;
50757;SDS011;36732;47.980;11.652;2023-02-28T10:13:05;11.35;;;8.77;;
50757;SDS011;36732;47.980;11.652;2023-02-28T10:15:55;11.55;;;9.98;;
50757;SDS011;36732;47.980;11.652;2023-02-28T10:18:29;9.38;;;8.13;;
50757;SDS011;36732;47.980;11.652;2023-02-28T10:21:14;10.93;;;8.07;;
50757;SDS011;36732;47.980;11.652;2023-02-28T10:23:46;12.70;;;9.35;;
50757;SDS011;36732;47.980;11.652;2023-02-28T10:26:14;12.18;;;10.45;;
50757;SDS011;36732;47.980;11.652;2023-02-28T10:28:42;11.18;;;9.20;;
50757;SDS011;36732;47.980;11.652;2023-02-28T10:31:11;14.65;;;11.88;;
50757;SDS011;36732;47.980;11.652;2023-02-28T10:33:43;12.65;;;9.70;;
50757;SDS011;36732;47.980;11.652;2023-02-28T10:36:14;13.07;;;9.20;;
50757;SDS011;36732;47.980;11.652;2023-02-28T10:38:43;11.43;;;9.18;;
50757;SDS011;36732;47.980;11.652;2023-02-28T10:41:12;12.52;;;8.23;;
50757;SDS011;36732;47.980;11.652;2023-02-28T10:46:39;11.48;;;8.43;;
50757;SDS011;36732;47.980;11.652;2023-02-28T10:49:12;11.25;;;9.20;;
50757;SDS011;36732;47.980;11.652;2023-02-28T10:51:55;12.50;;;9.60;;
50757;SDS011;36732;47.980;11.652;2023-02-28T10:57:06;9.07;;;8.10;;
50757;SDS011;36732;47.980;11.652;2023-02-28T10:59:52;10.75;;;9.20;;
50757;SDS011;36732;47.980;11.652;2023-02-28T11:02:41;12.82;;;9.27;;
50757;SDS011;36732;47.980;11.652;2023-02-28T11:05:30;12.55;;;9.38;;
50757;SDS011;36732;47.980;11.652;2023-02-28T11:08:06;11.13;;;8.70;;
50757;SDS011;36732;47.980;11.652;2023-02-28T11:10:43;13.45;;;9.90;;
50757;SDS011;36732;47.980;11.652;2023-02-28T11:13:21;12.02;;;9.85;;
50757;SDS011;36732;47.980;11.652;2023-02-28T11:15:52;12.90;;;10.20;;
50757;SDS011;36732;47.980;11.652;2023-02-28T11:18:25;13.60;;;10.38;;
50757;SDS011;36732;47.980;11.652;2023-02-28T11:21:04;13.00;;;11.02;;
50757;SDS011;36732;47.980;11.652;2023-02-28T11:23:30;12.82;;;9.45;;
50757;SDS011;36732;47.980;11.652;2023-02-28T11:26:00;11.20;;;8.75;;
50757;SDS011;36732;47.980;11.652;2023-02-28T11:28:36;10.95;;;8.65;;
50757;SDS011;36732;47.980;11.652;2023-02-28T11:37:00;15.05;;;9.27;;
50757;SDS011;36732;47.980;11.652;2023-02-28T11:39:30;13.38;;;9.80;;
50757;SDS011;36732;47.980;11.652;2023-02-28T11:42:07;12.35;;;10.27;;
50757;SDS011;36732;47.980;11.652;2023-02-28T11:45:36;10.70;;;9.57;;
50757;SDS011;36732;47.980;11.652;2023-02-28T11:48:04;11.18;;;8.07;;
50757;SDS011;36732;47.980;11.652;2023-02-28T11:56:26;11.10;;;8.52;;
50757;SDS011;36732;47.980;11.652;2023-02-28T12:04:52;12.27;;;10.98;;
50757;SDS011;36732;47.980;11.652;2023-02-28T12:10:37;12.18;;;9.48;;
50757;SDS011;36732;47.980;11.652;2023-02-28T12:13:36;11.70;;;9.63;;
50757;SDS011;36732;47.980;11.652;2023-02-28T12:18:59;10.75;;;7.93;;
50757;SDS011;36732;47.980;11.652;2023-02-28T12:21:57;10.48;;;9.10;;
50757;SDS011;36732;47.980;11.652;2023-02-28T12:24:48;12.32;;;9.35;;
50757;SDS011;36732;47.980;11.652;2023-02-28T12:27:47;10.48;;;8.70;;
50757;SDS011;36732;47.980;11.652;2023-02-28T12:30:24;11.65;;;10.25;;
50757;SDS011;36732;47.980;11.652;2023-02-28T12:33:07;11.07;;;9.10;;
50757;SDS011;36732;47.980;11.652;2023-02-28T12:35:46;13.13;;;10.45;;
50757;SDS011;36732;47.980;11.652;2023-02-28T12:38:27;12.43;;;9.68;;
50757;SDS011;36732;47.980;11.652;2023-02-28T12:41:02;13.10;;;9.77;;
50757;SDS011;36732;47.980;11.652;2023-02-28T12:43:42;20.80;;;13.77;;
50757;SDS011;36732;47.980;11.652;2023-02-28T12:46:33;34.63;;;21.98;;
50757;SDS011;36732;47.980;11.652;2023-02-28T12:49:10;28.85;;;19.20;;
50757;SDS011;36732;47.980;11.652;2023-02-28T12:51:41;16.42;;;12.93;;
50757;SDS011;36732;47.980;11.652;2023-02-28T12:54:15;15.48;;;11.70;;
50757;SDS011;36732;47.980;11.652;2023-02-28T12:57:05;15.30;;;13.10;;
50757;SDS011;36732;47.980;11.652;2023-02-28T12:59:54;15.07;;;10.73;;
50757;SDS011;36732;47.980;11.652;2023-02-28T13:11:29;15.13;;;11.35;;
50757;SDS011;36732;47.980;11.652;2023-02-28T13:14:00;13.80;;;10.85;;
50757;SDS011;36732;47.980;11.652;2023-02-28T13:16:46;13.27;;;11.55;;
50757;SDS011;36732;47.980;11.652;2023-02-28T13:19:18;13.55;;;11.98;;
50757;SDS011;36732;47.980;11.652;2023-02-28T13:21:48;13.77;;;11.68;;
50757;SDS011;36732;47.980;11.652;2023-02-28T13:29:51;13.10;;;10.82;;
50757;SDS011;36732;47.980;11.652;2023-02-28T13:32:18;12.98;;;11.05;;
50757;SDS011;36732;47.980;11.652;2023-02-28T13:39:53;16.77;;;11.80;;
50757;SDS011;36732;47.980;11.652;2023-02-28T13:52:54;14.70;;;12.70;;
50757;SDS011;36732;47.980;11.652;2023-02-28T13:55:44;12.90;;;11.18;;
50757;SDS011;36732;47.980;11.652;2023-02-28T13:58:39;13.80;;;11.43;;
50757;SDS011;36732;47.980;11.652;2023-02-28T14:07:02;14.80;;;11.57;;
50757;SDS011;36732;47.980;11.652;2023-02-28T14:09:30;11.65;;;9.85;;
50757;SDS011;36732;47.980;11.652;2023-02-28T14:15:28;11.50;;;10.23;;
50757;SDS011;36732;47.980;11.652;2023-02-28T14:18:21;13.55;;;11.60;;
50757;SDS011;36732;47.980;11.652;2023-02-28T14:20:57;14.70;;;11.60;;
50757;SDS011;36732;47.980;11.652;2023-02-28T14:27:03;14.38;;;12.63;;
50757;SDS011;36732;47.980;11.652;2023-02-28T14:35:12;14.38;;;11.98;;
50757;SDS011;36732;47.980;11.652;2023-02-28T14:37:52;14.23;;;10.82;;
50757;SDS011;36732;47.980;11.652;2023-02-28T14:40:26;11.32;;;10.10;;
50757;SDS011;36732;47.980;11.652;2023-02-28T14:43:00;15.23;;;10.90;;
50757;SDS011;36732;47.980;11.652;2023-02-28T14:45:34;13.07;;;10.65;;
50757;SDS011;36732;47.980;11.652;2023-02-28T14:48:02;14.15;;;10.98;;
50757;SDS011;36732;47.980;11.652;2023-02-28T14:50:35;12.75;;;11.40;;
50757;SDS011;36732;47.980;11.652;2023-02-28T14:53:02;13.07;;;10.65;;
50757;SDS011;36732;47.980;11.652;2023-02-28T14:55:33;12.98;;;10.38;;
50757;SDS011;36732;47.980;11.652;2023-02-28T14:58:05;11.27;;;9.75;;
50757;SDS011;36732;47.980;11.652;2023-02-28T15:00:50;16.40;;;11.05;;
50757;SDS011;36732;47.980;11.652;2023-02-28T15:03:19;13.15;;;10.82;;
50757;SDS011;36732;47.980;11.652;2023-02-28T15:05:58;13.43;;;11.50;;
50757;SDS011;36732;47.980;11.652;2023-02-28T15:08:45;11.63;;;9.35;;
50757;SDS011;36732;47.980;11.652;2023-02-28T15:11:15;14.15;;;10.45;;
50757;SDS011;36732;47.980;11.652;2023-02-28T15:13:50;12.00;;;10.18;;
50757;SDS011;36732;47.980;11.652;2023-02-28T15:19:08;20.27;;;14.38;;
50757;SDS011;36732;47.980;11.652;2023-02-28T15:21:47;15.25;;;13.45;;
50757;SDS011;36732;47.980;11.652;2023-02-28T15:26:53;16.35;;;11.90;;
50757;SDS011;36732;47.980;11.652;2023-02-28T15:29:23;15.13;;;11.75;;
50757;SDS011;36732;47.980;11.652;2023-02-28T15:32:03;17.23;;;13.82;;
50757;SDS011;36732;47.980;11.652;2023-02-28T15:34:39;14.40;;;12.05;;
50757;SDS011;36732;47.980;11.652;2023-02-28T15:39:58;15.57;;;12.98;;
50757;SDS011;36732;47.980;11.652;2023-02-28T15:42:42;13.32;;;11.77;;
50757;SDS011;36732;47.980;11.652;2023-02-28T15:48:36;12.95;;;10.95;;
50757;SDS011;36732;47.980;11.652;2023-02-28T15:51:18;13.65;;;11.57;;
50757;SDS011;36732;47.980;11.652;2023-02-28T15:53:56;15.20;;;12.05;;
50757;SDS011;36732;47.980;11.652;2023-02-28T15:56:26;16.85;;;13.98;;
50757;SDS011;36732;47.980;11.652;2023-02-28T15:58:57;17.55;;;13.90;;
50757;SDS011;36732;47.980;11.652;2023-02-28T16:01:26;17.20;;;13.95;;
50757;SDS011;36732;47.980;11.652;2023-02-28T16:04:05;17.48;;;13.75;;
50757;SDS011;36732;47.980;11.652;2023-02-28T16:06:40;22.17;;;17.05;;
50757;SDS011;36732;47.980;11.652;2023-02-28T16:09:09;17.00;;;13.82;;
50757;SDS011;36732;47.980;11.652;2023-02-28T16:11:39;17.88;;;15.27;;
50757;SDS011;36732;47.980;11.652;2023-02-28T16:14:12;17.63;;;14.90;;
50757;SDS011;36732;47.980;11.652;2023-02-28T16:16:45;17.45;;;15.32;;
50757;SDS011;36732;47.980;11.652;2023-02-28T16:19:14;17.63;;;14.93;;
50757;SDS011;36732;47.980;11.652;2023-02-28T16:21:40;16.88;;;13.82;;
50757;SDS011;36732;47.980;11.652;2023-02-28T16:24:06;16.85;;;15.05;;
50757;SDS011;36732;47.980;11.652;2023-02-28T16:26:32;19.15;;;15.10;;
50757;SDS011;36732;47.980;11.652;2023-02-28T16:28:59;20.73;;;16.85;;
50757;SDS011;36732;47.980;11.652;2023-02-28T16:31:26;24.80;;;18.35;;
50757;SDS011;36732;47.980;11.652;2023-02-28T16:33:52;18.83;;;15.02;;
50757;SDS011;36732;47.980;11.652;2023-02-28T16:36:19;52.25;;;33.63;;
50757;SDS011;36732;47.980;11.652;2023-02-28T16:38:50;73.60;;;45.50;;
50757;SDS011;36732;47.980;11.652;2023-02-28T16:41:19;33.97;;;23.60;;
50757;SDS011;36732;47.980;11.652;2023-02-28T16:43:50;27.10;;;19.92;;
50757;SDS011;36732;47.980;11.652;2023-02-28T16:48:49;21.45;;;15.95;;
50757;SDS011;36732;47.980;11.652;2023-02-28T16:51:16;16.52;;;13.07;;
50757;SDS011;36732;47.980;11.652;2023-02-28T16:53:43;17.63;;;13.25;;
50757;SDS011;36732;47.980;11.652;2023-02-28T16:56:19;13.43;;;11.43;;
50757;SDS011;36732;47.980;11.652;2023-02-28T16:58:48;14.85;;;11.48;;
50757;SDS011;36732;47.980;11.652;2023-02-28T17:01:15;14.05;;;11.80;;
50757;SDS011;36732;47.980;11.652;2023-02-28T17:03:46;14.43;;;11.57;;
50757;SDS011;36732;47.980;11.652;2023-02-28T17:06:24;14.85;;;11.63;;
50757;SDS011;36732;47.980;11.652;2023-02-28T17:08:53;15.07;;;11.85;;
50757;SDS011;36732;47.980;11.652;2023-02-28T17:11:19;23.90;;;13.40;;
50757;SDS011;36732;47.980;11.652;2023-02-28T17:13:46;21.80;;;14.00;;